Time;durP1;ratioP1;P1;durP2;ratioP2;P2;SDS_P1;SDS_P2;PMS_P1;PMS_P2;Temp;Humidity;BMP_temperature;BMP_pressure;BME280_temperature;BME280_humidity;BME280_pressure;Samples;Min_cycle;Max_cycle;Signal;HPM_P1;HPM_P2
2023/03/11 00:00:50;;;;;;;1.80;0.60;;;;;;;19.97;41.21;90945.97;1710063;75;662584;-70
2023/03/11 00:03:19;;;;;;;2.70;0.70;;;;;;;19.97;41.21;90945.97;1717862;75;662899;-71
2023/03/11 00:05:46;;;;;;;2.35;0.90;;;;;;;19.96;41.54;90944.59;1717437;75;662887;-71
2023/03/11 00:08:19;;;;;;;5.00;1.10;;;;;;;19.96;41.54;90944.59;1708550;75;751354;-70
2023/03/11 00:10:48;;;;;;;1.30;0.70;;;;;;;19.91;41.50;90932.13;1717712;75;667224;-72
2023/03/11 00:13:16;;;;;;;2.75;1.00;;;;;;;19.90;41.48;90930.78;1708646;75;736708;-70
2023/03/11 00:15:46;;;;;;;1.00;0.50;;;;;;;19.89;41.46;90932.84;1717364;75;668703;-70
2023/03/11 00:18:12;;;;;;;3.20;0.70;;;;;;;19.88;41.35;90939.09;1709862;75;668425;-70
2023/03/11 00:20:42;;;;;;;3.10;0.70;;;;;;;19.87;41.49;90957.16;1717792;75;667291;-70
2023/03/11 00:23:11;;;;;;;1.90;0.70;;;;;;;19.87;41.49;90959.91;1709363;75;669055;-71
2023/03/11 00:25:38;;;;;;;1.95;0.80;;;;;;;19.87;41.54;90962.69;1717149;75;683736;-69
2023/03/11 00:28:11;;;;;;;2.55;0.85;;;;;;;19.85;41.53;90943.28;1709810;75;666519;-70
2023/03/11 00:30:40;;;;;;;2.95;1.00;;;;;;;19.88;41.37;90952.97;1717408;75;666501;-70
2023/03/11 00:33:08;;;;;;;3.80;0.70;;;;;;;19.88;41.37;90952.97;1709929;75;664067;-70
2023/03/11 00:35:35;;;;;;;3.10;0.80;;;;;;;19.86;41.23;90964.06;1718000;75;659461;-70
2023/03/11 00:38:06;;;;;;;2.30;0.80;;;;;;;19.84;41.30;90961.31;1709474;75;663521;-70
2023/03/11 00:40:35;;;;;;;1.70;0.80;;;;;;;19.81;41.47;90966.16;1717906;75;660457;-70
2023/03/11 00:43:02;;;;;;;1.80;0.80;;;;;;;19.79;41.49;90969.66;1709895;75;669039;-71
2023/03/11 00:45:30;;;;;;;2.05;0.70;;;;;;;19.76;41.57;90968.25;1717868;75;663452;-71
2023/03/11 00:47:56;;;;;;;1.20;0.70;;;;;;;19.76;41.55;90971.03;1709443;75;662201;-71
2023/03/11 00:50:30;;;;;;;2.70;0.60;;;;;;;19.77;41.49;90974.50;1717949;75;658407;-70
2023/03/11 00:52:56;;;;;;;1.60;0.80;;;;;;;19.73;41.57;90986.31;1710077;75;660843;-71
2023/03/11 00:55:29;;;;;;;5.15;0.80;;;;;;;19.75;41.40;90991.16;1717380;75;662002;-71
2023/03/11 00:57:59;;;;;;;2.00;0.80;;;;;;;19.72;41.54;90996.03;1709529;75;699866;-70
2023/03/11 01:00:28;;;;;;;1.15;0.40;;;;;;;19.71;41.56;90999.50;1717705;75;668833;-69
2023/03/11 01:02:56;;;;;;;1.90;0.70;;;;;;;19.72;41.52;90998.09;1710002;75;662481;-71
2023/03/11 01:05:27;;;;;;;1.80;0.80;;;;;;;19.71;41.37;90996.72;1717879;75;659013;-71
2023/03/11 01:07:53;;;;;;;1.50;0.60;;;;;;;19.71;41.45;90993.94;1709933;75;660283;-70
2023/03/11 01:10:20;;;;;;;0.50;0.50;;;;;;;19.71;41.41;90985.63;1717308;75;667124;-70
2023/03/11 01:12:47;;;;;;;0.85;0.50;;;;;;;19.68;41.51;90984.25;1717777;75;663912;-70
2023/03/11 01:15:23;;;;;;;1.75;0.70;;;;;;;19.67;41.52;90972.44;1709782;75;662221;-71
2023/03/11 01:17:50;;;;;;;2.50;0.50;;;;;;;19.67;41.51;90971.75;1709793;75;665400;-69
2023/03/11 01:20:16;;;;;;;1.90;0.60;;;;;;;19.66;41.46;90971.06;1717624;75;665785;-70
2023/03/11 01:22:43;;;;;;;3.50;0.80;;;;;;;19.69;41.73;90972.47;1717355;75;660792;-70
2023/03/11 01:25:13;;;;;;;2.00;0.60;;;;;;;19.69;41.73;90972.47;1709622;75;665667;-70
2023/03/11 01:27:40;;;;;;;1.40;0.40;;;;;;;19.66;41.34;90973.16;1717774;75;663858;-71
2023/03/11 01:30:07;;;;;;;0.90;0.40;;;;;;;19.65;41.39;90975.25;1709585;75;681657;-71
2023/03/11 01:32:33;;;;;;;0.90;0.50;;;;;;;19.63;41.44;90971.78;1718270;75;665442;-72
2023/03/11 01:35:00;;;;;;;2.70;0.70;;;;;;;19.66;41.13;90968.28;1710456;75;666880;-70
2023/03/11 01:37:26;;;;;;;1.45;0.65;;;;;;;19.66;41.02;90954.44;1717702;75;670231;-71
2023/03/11 01:39:52;;;;;;;1.05;0.50;;;;;;;19.66;41.17;90954.44;1710027;75;669711;-71
2023/03/11 01:42:18;;;;;;;1.40;0.60;;;;;;;19.67;41.15;90963.44;1717962;75;665294;-70
2023/03/11 01:44:44;;;;;;;0.80;0.60;;;;;;;19.66;41.13;90954.44;1718095;75;668899;-71
2023/03/11 01:47:10;;;;;;;0.90;0.50;;;;;;;19.65;41.22;90947.50;1710219;75;665544;-71
2023/03/11 01:49:40;;;;;;;0.40;0.30;;;;;;;19.65;41.25;90955.84;1718140;75;666564;-70
2023/03/11 01:52:08;;;;;;;1.00;0.80;;;;;;;19.64;41.32;90945.44;1709970;75;662380;-70
2023/03/11 01:54:39;;;;;;;1.70;0.70;;;;;;;19.64;41.29;90953.75;1717823;75;661241;-70
2023/03/11 01:57:09;;;;;;;0.65;0.30;;;;;;;19.64;41.21;90959.97;1709877;75;672524;-70
2023/03/11 01:59:48;;;;;;;0.30;0.30;;;;;;;19.62;41.34;90959.97;1717647;75;667884;-71
2023/03/11 02:02:47;;;;;;;0.55;0.40;;;;;;;19.60;41.47;90965.53;1708823;75;747637;-70
2023/03/11 02:05:13;;;;;;;0.60;0.30;;;;;;;19.62;41.36;90962.75;1709918;75;681666;-70
2023/03/11 02:07:40;;;;;;;0.70;0.50;;;;;;;19.58;41.42;90943.38;1718082;75;663494;-70
2023/03/11 02:10:07;;;;;;;1.10;0.50;;;;;;;19.61;41.23;90949.63;1709600;75;665802;-69
2023/03/11 02:12:36;;;;;;;0.70;0.30;;;;;;;19.57;41.42;90956.53;1717990;75;664134;-70
2023/03/11 02:15:05;;;;;;;1.30;0.60;;;;;;;19.58;41.40;90965.56;1709782;75;667630;-70
2023/03/11 02:17:33;;;;;;;1.00;0.40;;;;;;;19.56;41.35;90969.03;1717554;75;662052;-72
2023/03/11 02:20:27;;;;;;;0.70;0.60;;;;;;;19.57;41.40;90955.84;1709674;75;663263;-71
2023/03/11 02:22:56;;;;;;;0.65;0.35;;;;;;;19.57;41.35;90973.16;1710221;75;667717;-70
2023/03/11 02:26:03;;;;;;;2.45;0.50;;;;;;;19.56;41.32;90968.34;1717947;75;663910;-71
2023/03/11 02:28:31;;;;;;;0.80;0.40;;;;;;;19.56;41.38;90974.56;1709233;75;742611;-71
2023/03/11 02:30:58;;;;;;;0.60;0.50;;;;;;;19.57;41.33;90967.63;1717580;75;659109;-72
2023/03/11 02:33:30;;;;;;;1.00;0.50;;;;;;;19.55;41.41;90972.50;1710143;75;663128;-71
2023/03/11 02:35:56;;;;;;;0.50;0.40;;;;;;;19.55;41.21;90970.44;1717434;75;669241;-70
2023/03/11 02:38:23;;;;;;;0.50;0.40;;;;;;;19.54;41.28;90977.34;1710198;75;660500;-70
2023/03/11 02:41:01;;;;;;;1.10;0.50;;;;;;;19.53;41.32;90970.44;1718219;75;661701;-71
2023/03/11 02:43:48;;;;;;;1.30;0.60;;;;;;;19.53;41.25;90969.72;1710172;75;661470;-70
2023/03/11 02:46:14;;;;;;;1.70;0.90;;;;;;;19.52;41.41;90974.59;1709904;75;663028;-70
2023/03/11 02:48:41;;;;;;;;;;;;;;;19.51;41.41;90978.75;1717619;75;657261;-71
2023/03/11 02:51:07;;;;;;;0.70;0.40;;;;;;;19.49;41.39;90981.53;1710248;75;665696;-70
2023/03/11 02:53:41;;;;;;;0.85;0.60;;;;;;;19.52;41.36;90982.91;1718014;75;673608;-70
2023/03/11 02:56:07;;;;;;;0.90;0.40;;;;;;;19.56;41.33;90982.22;1709784;75;667300;-70
2023/03/11 02:58:33;;;;;;;0.30;0.30;;;;;;;19.55;41.52;90983.59;1718063;75;663866;-71
2023/03/11 03:00:59;;;;;;;0.50;0.40;;;;;;;19.55;41.52;90983.59;1717980;75;670024;-70
2023/03/11 03:03:25;;;;;;;1.10;0.70;;;;;;;19.53;41.16;90980.81;1710141;75;664269;-71
2023/03/11 03:05:51;;;;;;;1.20;0.60;;;;;;;19.52;41.26;90985.66;1717543;75;665869;-71
2023/03/11 03:08:17;;;;;;;0.65;0.50;;;;;;;19.52;41.20;90973.91;1710142;75;668470;-70
2023/03/11 03:10:44;;;;;;;0.80;0.50;;;;;;;19.53;41.19;90987.06;1717920;75;664472;-70
2023/03/11 03:13:10;;;;;;;0.50;0.50;;;;;;;19.52;41.17;90988.44;1710235;75;664510;-70
2023/03/11 03:15:36;;;;;;;2.30;0.40;;;;;;;19.52;41.19;90988.44;1718029;75;662474;-70
2023/03/11 03:18:02;;;;;;;0.70;0.50;;;;;;;19.50;41.29;91002.31;1717411;75;662702;-70
2023/03/11 03:20:28;;;;;;;0.50;0.40;;;;;;;19.52;41.35;91007.84;1710183;75;660385;-70
2023/03/11 03:22:55;;;;;;;1.05;0.30;;;;;;;19.49;41.35;91000.94;1717504;75;659761;-70
2023/03/11 03:25:21;;;;;;;1.00;0.30;;;;;;;;;;1709795;75;661092;-71
2023/03/11 03:27:47;;;;;;;0.50;0.30;;;;;;;;;;1718028;75;658619;-70
2023/03/11 03:30:14;;;;;;;0.85;0.50;;;;;;;19.49;41.30;90987.06;1709547;75;697741;-72
2023/03/11 03:32:40;;;;;;;1.20;0.60;;;;;;;19.50;41.20;90976.66;1718126;75;659020;-71
2023/03/11 03:35:07;;;;;;;1.00;0.30;;;;;;;19.48;41.23;90969.06;1710046;75;665184;-70
2023/03/11 03:37:36;;;;;;;0.60;0.35;;;;;;;19.49;41.15;90973.22;1718019;75;662337;-70
2023/03/11 03:40:06;;;;;;;0.40;0.40;;;;;;;19.48;41.26;90980.16;1717977;75;664417;-70
2023/03/11 03:42:37;;;;;;;0.50;0.40;;;;;;;19.48;41.15;90985.69;1709032;75;741800;-70
2023/03/11 03:45:07;;;;;;;0.30;0.30;;;;;;;19.47;41.31;90995.41;1717943;75;660377;-71
2023/03/11 03:47:34;;;;;;;0.75;0.30;;;;;;;19.48;41.19;91009.94;1708571;75;743072;-70
2023/03/11 03:50:01;;;;;;;;;;;;;;;19.48;41.20;91035.59;1717924;75;662071;-69
2023/03/11 03:52:27;;;;;;;0.30;0.30;;;;;;;19.48;41.13;91049.47;1710171;75;663262;-70
2023/03/11 03:54:53;;;;;;;0.50;0.30;;;;;;;19.47;41.24;91041.81;1717984;75;661700;-71
2023/03/11 03:57:20;;;;;;;0.30;0.30;;;;;;;19.46;41.25;91040.44;1709635;75;665616;-72
2023/03/11 03:59:46;;;;;;;0.30;0.30;;;;;;;19.46;41.29;91029.34;1717810;75;666839;-71
2023/03/11 04:02:12;;;;;;;0.40;0.40;;;;;;;19.45;41.22;91020.34;1709948;75;664868;-71
2023/03/11 04:04:38;;;;;;;0.70;0.40;;;;;;;19.45;41.27;91016.88;1717751;75;663882;-70
2023/03/11 04:07:05;;;;;;;0.50;0.40;;;;;;;19.45;41.21;91012.03;1717575;75;662937;-72
2023/03/11 04:09:33;;;;;;;0.25;0.20;;;;;;;19.44;41.24;91013.44;1709036;75;692461;-71
2023/03/11 04:12:00;;;;;;;0.60;0.30;;;;;;;19.45;41.26;91011.34;1717673;75;672552;-71
2023/03/11 04:14:26;;;;;;;1.10;0.30;;;;;;;19.45;41.29;91019.66;1709686;75;670045;-71
2023/03/11 04:16:52;;;;;;;0.20;0.20;;;;;;;19.43;41.11;91014.81;1717808;75;665638;-71
2023/03/11 04:19:18;;;;;;;0.70;0.30;;;;;;;19.44;40.99;91002.34;1709890;75;666799;-70
2023/03/11 04:21:44;;;;;;;0.40;0.40;;;;;;;19.46;40.95;91005.09;1717738;75;664989;-70
2023/03/11 04:24:11;;;;;;;1.00;0.40;;;;;;;19.45;41.12;91003.03;1709823;75;663501;-70
2023/03/11 04:26:37;;;;;;;0.40;0.30;;;;;;;19.46;41.10;91007.88;1717848;75;668508;-71
2023/03/11 04:29:03;;;;;;;0.90;0.40;;;;;;;19.46;41.03;91007.88;1717176;75;668547;-71
2023/03/11 04:31:29;;;;;;;0.20;0.20;;;;;;;19.47;40.98;91003.03;1709316;75;666759;-69
2023/03/11 04:33:55;;;;;;;0.30;0.30;;;;;;;19.46;41.06;91001.63;1717549;75;674525;-71
2023/03/11 04:36:21;;;;;;;0.70;0.40;;;;;;;19.45;40.99;91009.25;1710071;75;669090;-71
2023/03/11 04:38:47;;;;;;;0.50;0.40;;;;;;;19.45;41.04;91000.94;1717833;75;669599;-71
2023/03/11 04:41:14;;;;;;;0.60;0.30;;;;;;;19.44;41.19;91016.19;1709894;75;660376;-71
2023/03/11 04:43:40;;;;;;;0.50;0.50;;;;;;;19.43;41.21;91020.34;1718002;75;660858;-70
2023/03/11 04:46:06;;;;;;;0.40;0.20;;;;;;;19.45;41.09;91025.19;1717371;75;661598;-71
2023/03/11 04:48:32;;;;;;;0.40;0.35;;;;;;;19.42;41.31;91032.16;1709964;75;665214;-71
2023/03/11 04:50:58;;;;;;;0.45;0.30;;;;;;;19.44;41.06;91010.66;1717957;75;659940;-70
2023/03/11 04:53:24;;;;;;;0.40;0.30;;;;;;;19.44;41.06;91010.66;1710030;75;661872;-71
2023/03/11 04:55:52;;;;;;;0.40;0.40;;;;;;;19.42;41.12;90996.13;1718007;75;659313;-71
2023/03/11 04:58:19;;;;;;;2.60;0.30;;;;;;;19.43;41.08;91009.25;1710043;75;661921;-71
2023/03/11 05:00:46;;;;;;;0.20;0.20;;;;;;;19.42;41.10;91002.34;1718183;75;667974;-72
2023/03/11 05:03:12;;;;;;;1.50;0.40;;;;;;;19.42;41.11;91010.66;1699431;75;1511940;-70
2023/03/11 05:05:38;;;;;;;0.40;0.30;;;;;;;19.42;40.97;91018.97;1718192;75;664092;-71
2023/03/11 05:08:04;;;;;;;0.60;0.40;;;;;;;19.40;41.16;91021.75;1717916;75;660401;-70
2023/03/11 05:10:31;;;;;;;0.20;0.20;;;;;;;19.41;41.14;91042.53;1710518;75;664487;-70
2023/03/11 05:12:57;;;;;;;1.10;0.20;;;;;;;19.39;41.23;91039.09;1718392;75;659910;-71
2023/03/11 05:15:23;;;;;;;0.20;0.20;;;;;;;19.41;41.16;91045.31;1710424;75;662869;-69
2023/03/11 05:17:49;;;;;;;0.20;0.20;;;;;;;19.41;41.10;91045.31;1718206;75;667895;-71
2023/03/11 05:20:15;;;;;;;0.40;0.30;;;;;;;19.41;41.21;91048.09;1710249;75;671186;-71
2023/03/11 05:22:41;;;;;;;0.90;0.30;;;;;;;19.37;41.20;91040.47;1718289;75;665323;-71
2023/03/11 05:25:08;;;;;;;0.20;0.20;;;;;;;19.41;41.14;91036.28;1718311;75;662497;-72
2023/03/11 05:27:34;;;;;;;0.35;0.30;;;;;;;19.40;41.17;91046.69;1709216;75;749184;-70
2023/03/11 05:30:01;;;;;;;0.15;0.10;;;;;;;19.40;41.26;91046.69;1718392;75;665673;-72
2023/03/11 05:32:27;;;;;;;0.15;0.10;;;;;;;19.39;41.22;91050.16;1710468;75;663988;-71
2023/03/11 05:34:53;;;;;;;0.30;0.20;;;;;;;19.39;41.16;91056.41;1718128;75;671228;-70
2023/03/11 05:37:19;;;;;;;0.20;0.20;;;;;;;19.36;41.22;91052.94;1710333;75;668147;-71
2023/03/11 05:39:45;;;;;;;0.20;0.20;;;;;;;19.39;41.17;91044.63;1718129;75;670268;-71
2023/03/11 05:42:12;;;;;;;0.30;0.30;;;;;;;19.38;41.16;91046.69;1710412;75;667966;-71
2023/03/11 05:44:38;;;;;;;0.20;0.20;;;;;;;19.41;41.14;91058.47;1718136;75;668363;-71
2023/03/11 05:47:04;;;;;;;0.40;0.30;;;;;;;19.40;41.12;91055.00;1718022;75;675671;-71
2023/03/11 05:49:30;;;;;;;0.20;0.20;;;;;;;19.40;41.08;91054.31;1710348;75;670825;-71
2023/03/11 05:51:56;;;;;;;0.30;0.20;;;;;;;19.40;41.04;91066.09;1718167;75;665956;-71
2023/03/11 05:54:22;;;;;;;0.35;0.20;;;;;;;19.41;41.19;91061.94;1710209;75;669231;-70
2023/03/11 05:56:49;;;;;;;0.40;0.20;;;;;;;19.43;40.90;91050.16;1716852;75;692893;-70
2023/03/11 05:59:16;;;;;;;0.20;0.20;;;;;;;19.43;40.90;91050.16;1708120;75;731919;-70
2023/03/11 06:01:43;;;;;;;0.10;0.10;;;;;;;19.40;41.08;91057.09;1715729;75;744939;-71
2023/03/11 06:04:10;;;;;;;;;;;;;;;19.39;41.09;91058.50;1716096;75;745712;-71
2023/03/11 06:06:42;;;;;;;0.50;0.25;;;;;;;19.38;41.14;91060.53;1707443;75;750407;-72
2023/03/11 06:09:13;;;;;;;1.80;0.20;;;;;;;19.39;41.32;91073.03;1716384;75;690934;-71
2023/03/11 06:11:40;;;;;;;0.20;0.20;;;;;;;19.36;41.15;91066.09;1707612;75;761842;-71
2023/03/11 06:14:10;;;;;;;0.80;0.30;;;;;;;19.39;41.08;91075.81;1716696;75;718220;-70
2023/03/11 06:16:36;;;;;;;0.40;0.30;;;;;;;19.35;41.18;91079.25;1708031;75;733085;-70
2023/03/11 06:19:02;;;;;;;0.20;0.20;;;;;;;19.37;41.22;91075.81;1716670;75;739001;-71
2023/03/11 06:21:29;;;;;;;0.20;0.20;;;;;;;19.36;41.26;91071.63;1706576;75;827096;-71
2023/03/11 06:23:55;;;;;;;0.20;0.10;;;;;;;19.37;41.51;91095.19;1715504;75;781967;-71
2023/03/11 06:26:23;;;;;;;0.20;0.20;;;;;;;19.37;41.51;91095.19;1707210;75;748215;-71
2023/03/11 06:28:50;;;;;;;;;;;;;;;19.34;41.22;91093.81;1716112;75;696389;-71
2023/03/11 06:31:24;;;;;;;0.20;0.20;;;;;;;19.36;41.17;91091.03;1708203;75;696467;-68
2023/03/11 06:33:52;;;;;;;0.65;0.40;;;;;;;19.31;41.39;91087.59;1716684;75;702175;-72
2023/03/11 06:36:19;;;;;;;;;;;;;;;19.35;41.74;91095.19;1708285;75;706589;-70
2023/03/11 06:38:46;;;;;;;2.70;0.40;;;;;;;19.38;41.71;91091.03;1716348;75;698504;-73
2023/03/11 06:41:13;;;;;;;9.05;0.45;;;;;;;19.41;41.76;91095.19;1715018;75;790707;-71
2023/03/11 06:43:39;;;;;;;1.20;0.40;;;;;;;19.45;42.28;91097.94;1706578;75;756919;-72
2023/03/11 06:46:12;;;;;;;0.80;0.30;;;;;;;19.49;42.59;91094.50;1715415;75;786683;-75
2023/03/11 06:48:39;;;;;;;3.10;0.40;;;;;;;19.51;43.25;91086.88;1709228;75;662568;-75
2023/03/11 06:51:06;;;;;;;2.10;0.30;;;;;;;19.51;43.25;91086.88;1714191;75;869211;-75
2023/03/11 06:53:33;;;;;;;3.70;0.50;;;;;;;19.49;43.37;91075.09;1707677;75;754946;-72
2023/03/11 06:56:03;;;;;;;;;;;;;;;19.53;43.73;91081.31;1715655;75;749373;-73
2023/03/11 06:58:30;;;;;;;4.90;0.30;;;;;;;19.53;43.92;91084.09;1708836;75;706286;-70
2023/03/11 07:01:11;;;;;;;4.20;0.50;;;;;;;19.54;43.80;91084.78;1715847;75;753564;-75
2023/03/11 07:03:38;;;;;;;0.45;0.20;;;;;;;19.55;44.14;91086.88;1706750;75;776800;-74
2023/03/11 07:06:05;;;;;;;4.00;0.50;;;;;;;19.54;44.01;91091.00;1716993;75;694315;-74
2023/03/11 07:08:31;;;;;;;3.85;0.30;;;;;;;19.56;44.03;91093.78;1708629;75;739495;-72
2023/03/11 07:11:07;;;;;;;1.00;0.30;;;;;;;19.60;44.13;91101.38;1717882;75;676475;-74
2023/03/11 07:13:34;;;;;;;0.80;0.50;;;;;;;19.58;44.03;91104.88;1709555;75;666788;-79
2023/03/11 07:16:10;;;;;;;2.30;0.70;;;;;;;19.62;44.22;91097.94;1717500;75;664771;-78
2023/03/11 07:18:40;;;;;;;2.20;0.40;;;;;;;19.62;44.22;91109.03;1709861;75;687073;-77
2023/03/11 07:21:12;;;;;;;3.40;0.70;;;;;;;19.66;44.23;91114.56;1701054;75;2058990;-75
2023/03/11 07:23:42;;;;;;;;;;;;;;;;;;;;;
2023/03/11 07:26:11;;;;;;;;;;;;;;;19.67;44.11;91127.03;1717787;75;671394;-75
2023/03/11 07:28:39;;;;;;;5.10;0.60;;;;;;;19.58;44.82;91137.47;1680842;75;3103423;-72
2023/03/11 07:31:22;;;;;;;4.55;0.60;;;;;;;19.70;43.11;91140.22;1717914;75;662582;-72
2023/03/11 07:33:48;;;;;;;1.75;0.55;;;;;;;19.69;44.81;91152.00;1709176;75;747923;-72
2023/03/11 07:36:21;;;;;;;4.40;0.50;;;;;;;19.68;44.75;91156.19;1717432;75;665413;-72
2023/03/11 07:38:51;;;;;;;;;;;;;;;;;;;;;
2023/03/11 07:41:16;;;;;;;7.90;0.90;;;;;;;19.72;45.99;91164.47;1717218;75;674637;-64
2023/03/11 07:43:43;;;;;;;0.70;0.30;;;;;;;19.65;47.03;91163.06;1709850;75;671698;-71
2023/03/11 07:46:15;;;;;;;0.60;0.30;;;;;;;18.47;30.70;91169.84;1717890;75;667583;-67
2023/03/11 07:48:41;;;;;;;3.55;0.30;;;;;;;18.78;36.75;91170.66;1709326;75;735808;-77
2023/03/11 07:51:20;;;;;;;4.30;0.60;;;;;;;19.14;39.37;91174.84;1717502;75;663415;-70
2023/03/11 07:53:48;;;;;;;8.10;0.70;;;;;;;19.31;39.86;91189.41;1709904;75;672616;-77
2023/03/11 07:56:16;;;;;;;10.30;0.70;;;;;;;19.41;40.53;91185.94;1717107;75;673300;-80
2023/03/11 07:58:43;;;;;;;2.30;0.50;;;;;;;19.46;40.89;91184.56;1710070;75;665275;-77
2023/03/11 08:01:15;;;;;;;4.80;0.60;;;;;;;19.59;41.46;91197.06;1717856;75;666451;-77
2023/03/11 08:03:43;;;;;;;6.05;0.60;;;;;;;19.61;41.71;91207.47;1709260;75;681228;-72
2023/03/11 08:06:19;;;;;;;3.40;0.60;;;;;;;19.65;41.96;91199.84;1717950;75;664916;-74
2023/03/11 08:08:47;;;;;;;4.85;0.60;;;;;;;19.70;42.45;91208.84;1709879;75;667449;-71
2023/03/11 08:11:14;;;;;;;6.60;0.70;;;;;;;19.74;43.00;91203.31;1717819;75;666619;-72
2023/03/11 08:13:42;;;;;;;2.90;0.65;;;;;;;19.76;43.21;91206.06;1709217;75;678262;-76
2023/03/11 08:16:12;;;;;;;6.10;0.60;;;;;;;19.81;43.24;91213.00;1717509;75;678817;-77
2023/03/11 08:18:38;;;;;;;7.20;0.70;;;;;;;19.86;43.47;91197.75;1709698;75;684246;-74
2023/03/11 08:21:06;;;;;;;5.70;0.80;;;;;;;19.92;43.52;91188.72;1717933;75;662732;-75
2023/03/11 08:23:33;;;;;;;5.50;0.50;;;;;;;19.89;43.53;91193.59;1709975;75;665482;-73
2023/03/11 08:26:03;;;;;;;;;;;;;;;19.95;44.18;91199.13;1717798;75;670112;-75
2023/03/11 08:28:30;;;;;;;4.90;0.50;;;;;;;20.02;43.58;91188.69;1710056;75;668099;-78
2023/03/11 08:30:56;;;;;;;4.70;0.60;;;;;;;20.06;43.96;91176.88;1717832;75;667233;-74
2023/03/11 08:33:22;;;;;;;6.00;0.80;;;;;;;20.09;43.89;91187.31;1718144;75;667940;-78
2023/03/11 08:35:48;;;;;;;10.75;1.10;;;;;;;20.13;43.97;91187.31;1709245;75;757765;-73
2023/03/11 08:38:14;;;;;;;5.30;0.50;;;;;;;20.14;44.05;91190.75;1718302;75;668320;-75
2023/03/11 08:40:40;;;;;;;5.70;0.70;;;;;;;20.15;44.01;91192.81;1710005;75;662000;-74
2023/03/11 08:43:06;;;;;;;9.20;0.50;;;;;;;20.22;44.01;91199.06;1717902;75;674728;-71
2023/03/11 08:45:33;;;;;;;7.80;0.60;;;;;;;20.18;43.86;91208.09;1710264;75;668567;-72
2023/03/11 08:47:59;;;;;;;2.70;0.70;;;;;;;20.20;44.29;91199.78;1718245;75;670010;-80
2023/03/11 08:50:25;;;;;;;5.20;0.80;;;;;;;20.33;44.65;91197.66;1709647;75;675274;-68
2023/03/11 08:52:52;;;;;;;3.40;0.70;;;;;;;20.25;43.58;91194.88;1718028;75;670279;-71
2023/03/11 08:55:23;;;;;;;2.50;0.70;;;;;;;20.32;43.13;91204.56;1717584;75;713440;-72
2023/03/11 08:57:50;;;;;;;2.85;0.40;;;;;;;19.87;37.25;91204.00;1709213;75;751943;-69
2023/03/11 09:00:17;;;;;;;7.95;0.70;;;;;;;19.88;39.80;91202.59;1718267;75;665297;-72
2023/03/11 09:02:43;;;;;;;2.60;0.60;;;;;;;19.65;37.62;91197.06;1709763;75;705918;-77
2023/03/11 09:05:10;;;;;;;8.15;0.80;;;;;;;19.73;39.28;91185.97;1718516;75;664039;-78
2023/03/11 09:07:36;;;;;;;1.60;0.35;;;;;;;19.42;37.79;91190.13;1710290;75;667269;-71
2023/03/11 09:10:03;;;;;;;5.15;0.50;;;;;;;19.56;38.58;91188.03;1718128;75;671609;-70
2023/03/11 09:12:29;;;;;;;3.60;0.70;;;;;;;19.63;38.37;91196.38;1710218;75;668209;-75
2023/03/11 09:14:56;;;;;;;1.25;1.00;;;;;;;18.34;29.37;91198.88;1717914;75;676011;-69
2023/03/11 09:17:22;;;;;;;3.55;0.65;;;;;;;18.34;29.37;91198.88;1718131;75;667909;-73
2023/03/11 09:19:49;;;;;;;3.00;0.70;;;;;;;18.15;31.81;91195.31;1710326;75;663753;-70
2023/03/11 09:22:15;;;;;;;1.40;0.90;;;;;;;18.74;33.07;91199.00;1718173;75;665167;-69
2023/03/11 09:24:41;;;;;;;1.80;0.80;;;;;;;18.50;36.21;91223.84;1710305;75;665434;-69
2023/03/11 09:27:07;;;;;;;0.80;0.50;;;;;;;18.50;36.21;91223.84;1718078;75;668532;-71
2023/03/11 09:29:34;;;;;;;0.95;0.60;;;;;;;18.72;36.04;91231.53;1708513;75;798135;-71
2023/03/11 09:32:00;;;;;;;4.95;0.55;;;;;;;18.81;35.57;91235.03;1717584;75;664424;-73
2023/03/11 09:34:26;;;;;;;3.50;0.70;;;;;;;18.97;36.00;91235.09;1710115;75;670630;-67
2023/03/11 09:36:52;;;;;;;1.10;0.70;;;;;;;19.09;36.59;91248.28;1718089;75;667912;-66
2023/03/11 09:39:18;;;;;;;1.00;0.60;;;;;;;19.06;36.15;91238.56;1718108;75;662525;-66
2023/03/11 09:42:00;;;;;;;1.30;0.90;;;;;;;19.09;36.32;91229.56;1710156;75;666639;-66
2023/03/11 09:44:41;;;;;;;1.00;0.80;;;;;;;19.13;36.42;91217.81;1709448;75;669302;-66
2023/03/11 09:47:25;;;;;;;3.35;1.00;;;;;;;19.21;36.12;91228.91;1717931;75;668065;-66
2023/03/11 09:50:25;;;;;;;2.10;0.50;;;;;;;18.45;30.83;91225.22;1708578;75;748500;-66
2023/03/11 09:52:58;;;;;;;3.70;0.80;;;;;;;18.10;30.64;91219.50;1709293;75;744859;-66
2023/03/11 09:55:31;;;;;;;2.50;0.60;;;;;;;18.45;32.98;91225.91;1717973;75;666257;-67
2023/03/11 09:58:03;;;;;;;0.90;0.50;;;;;;;18.61;32.89;91230.78;1709159;75;747541;-66
2023/03/11 10:00:30;;;;;;;1.15;0.50;;;;;;;18.70;33.13;91237.06;1718136;75;667306;-65
2023/03/11 10:02:56;;;;;;;0.90;0.60;;;;;;;18.82;33.76;91230.91;1709642;75;670939;-66
2023/03/11 10:05:29;;;;;;;3.70;0.70;;;;;;;18.65;32.59;91236.34;1718057;75;668495;-66
2023/03/11 10:08:19;;;;;;;1.60;0.60;;;;;;;18.77;33.67;91232.97;1709500;75;665622;-66
2023/03/11 10:10:56;;;;;;;1.00;0.60;;;;;;;18.81;33.27;91237.81;1709524;75;668208;-66
2023/03/11 10:14:12;;;;;;;4.25;0.70;;;;;;;18.71;32.93;91247.47;1717397;75;669811;-65
2023/03/11 10:17:09;;;;;;;2.55;0.60;;;;;;;18.76;33.34;91250.22;1708299;75;744066;-65
2023/03/11 10:19:46;;;;;;;3.30;0.60;;;;;;;18.78;33.38;91248.19;1709541;75;668012;-66
2023/03/11 10:22:19;;;;;;;1.30;0.80;;;;;;;18.34;29.59;91259.75;1717552;75;665900;-66
2023/03/11 10:25:00;;;;;;;2.40;0.80;;;;;;;18.34;29.59;91259.75;1709059;75;748220;-73
2023/03/11 10:27:54;;;;;;;1.50;0.60;;;;;;;18.25;33.32;91256.91;1709545;75;668388;-66
2023/03/11 10:30:34;;;;;;;4.00;0.90;;;;;;;18.66;34.15;91257.09;1714130;75;669668;-66
2023/03/11 10:33:28;;;;;;;1.80;0.65;;;;;;;18.86;34.93;91256.53;1717494;75;666026;-68
2023/03/11 10:35:59;;;;;;;1.45;0.50;;;;;;;18.97;35.24;91259.31;1708491;75;747562;-67
2023/03/11 10:38:34;;;;;;;5.95;1.10;;;;;;;19.05;35.64;91257.28;1717426;75;668514;-68
2023/03/11 10:41:12;;;;;;;6.00;1.55;;;;;;;19.09;35.87;91251.72;1707996;75;758897;-76
2023/03/11 10:43:51;;;;;;;5.60;0.70;;;;;;;19.11;36.19;91245.50;1682335;75;1971294;-67
2023/03/11 10:46:27;;;;;;;9.90;1.20;;;;;;;19.38;36.15;91249.00;1717210;75;669410;-68
2023/03/11 10:48:53;;;;;;;14.70;1.35;;;;;;;19.57;36.77;91246.94;1709252;75;669093;-72
2023/03/11 10:51:26;;;;;;;3.60;1.00;;;;;;;19.62;37.37;91236.56;1717712;75;667220;-79
2023/03/11 10:53:58;;;;;;;7.50;1.10;;;;;;;19.57;37.39;91238.63;1709653;75;665663;-76
2023/03/11 10:56:34;;;;;;;12.80;1.10;;;;;;;19.69;37.49;91237.97;1718016;75;664707;-65
2023/03/11 10:59:02;;;;;;;9.40;0.90;;;;;;;19.67;37.77;91238.63;1709691;75;678718;-62
2023/03/11 11:01:29;;;;;;;8.10;1.00;;;;;;;19.67;37.65;91244.19;1717366;75;669125;-63
2023/03/11 11:03:59;;;;;;;5.80;0.80;;;;;;;19.66;37.76;91239.34;1709771;75;674535;-63
2023/03/11 11:06:35;;;;;;;3.00;0.60;;;;;;;19.63;37.51;91237.97;1717364;75;673159;-65
2023/03/11 11:09:21;;;;;;;6.30;0.80;;;;;;;19.63;37.80;91235.88;1708949;75;778669;-64
2023/03/11 11:12:25;;;;;;;4.15;0.70;;;;;;;19.64;37.95;91237.25;1709918;75;663223;-64
2023/03/11 11:14:52;;;;;;;4.60;0.70;;;;;;;19.64;37.99;91237.25;1709137;75;665848;-65
2023/03/11 11:17:31;;;;;;;1.70;0.70;;;;;;;19.66;38.33;91242.09;1716840;75;666693;-63
2023/03/11 11:20:03;;;;;;;2.50;0.60;;;;;;;19.66;38.25;91248.34;1709590;75;667723;-66
2023/03/11 11:22:31;;;;;;;8.70;1.20;;;;;;;19.67;38.45;91241.41;1718024;75;669540;-66
2023/03/11 11:24:57;;;;;;;5.70;0.90;;;;;;;19.68;38.39;91237.28;1709853;75;668640;-64
2023/03/11 11:27:28;;;;;;;5.20;0.80;;;;;;;19.68;38.79;91233.81;1717344;75;667599;-65
2023/03/11 11:30:09;;;;;;;2.35;1.00;;;;;;;19.65;38.88;91230.34;1710001;75;667552;-66
2023/03/11 11:32:37;;;;;;;7.20;1.60;;;;;;;19.70;39.11;91233.81;1717776;75;671350;-67
2023/03/11 11:35:13;;;;;;;6.10;1.30;;;;;;;19.72;39.30;91231.75;1708898;75;749221;-65
2023/03/11 11:37:45;;;;;;;4.30;1.10;;;;;;;19.74;39.24;91231.03;1709420;75;668840;-68
2023/03/11 11:40:15;;;;;;;10.80;1.10;;;;;;;19.76;39.16;91231.72;1717733;75;667456;-67